Time;durP1;ratioP1;P1;durP2;ratioP2;P2;SDS_P1;SDS_P2;PMS_P1;PMS_P2;Temp;Humidity;BMP_temperature;BMP_pressure;BME280_temperature;BME280_humidity;BME280_pressure;Samples;Min_cycle;Max_cycle;Signal;HPM_P1;HPM_P2
2022/01/07 00:01:56;;;;;;;;;;;;;;;;;;5030176;28;19925;-74
2022/01/07 00:04:23;;;;;;;;;;;;;;;;;;5027209;28;19925;-74
2022/01/07 00:06:50;;;;;;;;;;;;;;;;;;5024473;28;20302;-73
2022/01/07 00:09:18;;;;;;;;;;;;;;;;;;5030450;28;19992;-74
2022/01/07 00:11:45;;;;;;;;;;;;;;;;;;5027795;28;19925;-75
2022/01/07 00:14:12;;;;;;;;;;;;;;;;;;5028040;28;19926;-74
2022/01/07 00:16:39;;;;;;;;;;;;;;;;;;5028107;28;19983;-74
2022/01/07 00:19:06;;;;;;;;;;;;;;;;;;5024826;28;19936;-75
2022/01/07 00:21:33;;;;;;;;;;;;;;;;;;5028486;28;19932;-75
2022/01/07 00:24:00;;;;;;;;;;;;;;;;;;5024405;28;19926;-74
2022/01/07 00:26:27;;;;;;;;;;;;;;;;;;5024540;28;20111;-74
2022/01/07 00:28:54;;;;;;;;;;;;;;;;;;5029294;28;20367;-74
2022/01/07 00:31:21;;;;;;;;;;;;;;;;;;5029030;28;19932;-74
2022/01/07 00:33:48;;;;;;;;;;;;;;;;;;5030534;28;20037;-75
2022/01/07 00:36:15;;;;;;;;;;;;;;;;;;5032828;28;20172;-74
2022/01/07 00:38:42;;;;;;;;;;;;;;;;;;5032667;28;20303;-75
2022/01/07 00:41:09;;;;;;;;;;;;;;;;;;5030858;28;19952;-75
2022/01/07 00:43:36;;;;;;;;;;;;;;;;;;5031359;28;19933;-74
2022/01/07 00:46:03;;;;;;;;;;;;;;;;;;5032668;28;20113;-75
2022/01/07 00:48:30;;;;;;;;;;;;;;;;;;5033194;28;19925;-75
2022/01/07 00:50:57;;;;;;;;;;;;;;;;;;5031831;28;19943;-75
2022/01/07 00:53:24;;;;;;;;;;;;;;;;;;5027628;28;20012;-73
2022/01/07 00:55:51;;;;;;;;;;;;;;;;;;5032876;28;19925;-74
2022/01/07 00:58:18;;;;;;;;;;;;;;;;;;5030484;28;19925;-73
2022/01/07 01:00:45;;;;;;;;;;;;;;;;;;5031498;28;19925;-72
2022/01/07 01:03:12;;;;;;;;;;;;;;;;;;5030888;28;19925;-71
2022/01/07 01:05:42;;;;;;;;;;;;;;;;;;5032360;28;19929;-74
2022/01/07 01:08:09;;;;;;;;;;;;;;;;;;5028673;28;20329;-75
2022/01/07 01:10:36;;;;;;;;;;;;;;;;;;5029730;28;19932;-75
2022/01/07 01:13:03;;;;;;;;;;;;;;;;;;5026247;28;19933;-74
2022/01/07 01:15:31;;;;;;;;;;;;;;;;;;5029333;28;19933;-74
2022/01/07 01:17:58;;;;;;;;;;;;;;;;;;5030292;28;19932;-75
2022/01/07 01:20:25;;;;;;;;;;;;;;;;;;5029277;28;20390;-74
2022/01/07 01:22:52;;;;;;;;;;;;;;;;;;5031090;28;19925;-75
2022/01/07 01:25:18;;;;;;;;;;;;;;;;;;5032158;28;19936;-74
2022/01/07 01:27:45;;;;;;;;;;;;;;;;;;5030454;28;20402;-74
2022/01/07 01:30:12;;;;;;;;;;;;;;;;;;5031146;28;19925;-75
2022/01/07 01:32:39;;;;;;;;;;;;;;;;;;5026116;28;19976;-74
2022/01/07 01:35:06;;;;;;;;;;;;;;;;;;5030971;28;19925;-73
2022/01/07 01:37:33;;;;;;;;;;;;;;;;;;5027249;28;19925;-75
2022/01/07 01:40:00;;;;;;;;;;;;;;;;;;5031634;28;20036;-74
2022/01/07 01:42:27;;;;;;;;;;;;;;;;;;5027992;28;20023;-74
2022/01/07 01:44:54;;;;;;;;;;;;;;;;;;5029095;28;19948;-73
2022/01/07 01:47:21;;;;;;;;;;;;;;;;;;5029293;28;19992;-74
2022/01/07 01:49:48;;;;;;;;;;;;;;;;;;5031933;28;20402;-73
2022/01/07 01:52:15;;;;;;;;;;;;;;;;;;5030914;28;19925;-74
2022/01/07 01:54:43;;;;;;;;;;;;;;;;;;5032443;28;19925;-73
2022/01/07 01:57:10;;;;;;;;;;;;;;;;;;5028199;28;19925;-74
2022/01/07 01:59:37;;;;;;;;;;;;;;;;;;5023868;28;20298;-74
2022/01/07 02:02:04;;;;;;;;;;;;;;;;;;5029196;28;20386;-74
2022/01/07 02:04:31;;;;;;;;;;;;;;;;;;5031231;28;19948;-74
2022/01/07 02:06:58;;;;;;;;;;;;;;;;;;5028626;28;19932;-74
2022/01/07 02:09:32;;;;;;;;;;;;;;;;;;5029326;28;19936;-74
2022/01/07 02:11:59;;;;;;;;;;;;;;;;;;5028891;28;20291;-74
2022/01/07 02:14:26;;;;;;;;;;;;;;;;;;5030904;28;19932;-75
2022/01/07 02:16:52;;;;;;;;;;;;;;;;;;5028390;28;19932;-74
2022/01/07 02:19:19;;;;;;;;;;;;;;;;;;5029894;28;19932;-74
2022/01/07 02:21:46;;;;;;;;;;;;;;;;;;5028149;28;20331;-75
2022/01/07 02:24:13;;;;;;;;;;;;;;;;;;5025135;28;19949;-74
2022/01/07 02:26:40;;;;;;;;;;;;;;;;;;5028159;28;19925;-75
2022/01/07 02:29:07;;;;;;;;;;;;;;;;;;5030624;28;20288;-75
2022/01/07 02:31:34;;;;;;;;;;;;;;;;;;5028566;28;19932;-74
2022/01/07 02:34:01;;;;;;;;;;;;;;;;;;5026293;28;19948;-74
2022/01/07 02:36:28;;;;;;;;;;;;;;;;;;5028371;28;19929;-73
2022/01/07 02:38:55;;;;;;;;;;;;;;;;;;5025413;28;20271;-74
2022/01/07 02:41:23;;;;;;;;;;;;;;;;;;5029172;28;19929;-74
2022/01/07 02:43:50;;;;;;;;;;;;;;;;;;5031160;28;19931;-73
2022/01/07 02:46:17;;;;;;;;;;;;;;;;;;5028009;28;19925;-74
2022/01/07 02:48:44;;;;;;;;;;;;;;;;;;5026265;28;19931;-75
2022/01/07 02:51:11;;;;;;;;;;;;;;;;;;5029041;28;20378;-73
2022/01/07 02:53:38;;;;;;;;;;;;;;;;;;5029748;28;19929;-74
2022/01/07 02:56:05;;;;;;;;;;;;;;;;;;5028381;28;19932;-75
2022/01/07 02:58:32;;;;;;;;;;;;;;;;;;5030227;28;19925;-74
2022/01/07 03:00:59;;;;;;;;;;;;;;;;;;5027626;28;19929;-74
2022/01/07 03:03:26;;;;;;;;;;;;;;;;;;5029403;28;20302;-73
2022/01/07 03:05:53;;;;;;;;;;;;;;;;;;5029631;28;19948;-73
2022/01/07 03:08:20;;;;;;;;;;;;;;;;;;5025659;28;19925;-76
2022/01/07 03:10:46;;;;;;;;;;;;;;;;;;5025530;28;19935;-73
2022/01/07 03:13:13;;;;;;;;;;;;;;;;;;5029262;28;19925;-73
2022/01/07 03:15:40;;;;;;;;;;;;;;;;;;5029780;28;19925;-74
2022/01/07 03:18:08;;;;;;;;;;;;;;;;;;5027780;28;19925;-74
2022/01/07 03:20:38;;;;;;;;;;;;;;;;;;5030424;28;20008;-74
2022/01/07 03:23:05;;;;;;;;;;;;;;;;;;5026367;28;19932;-74
2022/01/07 03:25:32;;;;;;;;;;;;;;;;;;5028977;28;20611;-74
2022/01/07 03:27:59;;;;;;;;;;;;;;;;;;5029681;28;19936;-73
2022/01/07 03:30:26;;;;;;;;;;;;;;;;;;5024300;28;19926;-74
2022/01/07 03:32:53;;;;;;;;;;;;;;;;;;5025190;28;19929;-74
2022/01/07 03:35:20;;;;;;;;;;;;;;;;;;5029896;28;19925;-74
2022/01/07 03:37:49;;;;;;;;;;;;;;;;;;5028250;28;20398;-75
2022/01/07 03:40:16;;;;;;;;;;;;;;;;;;5029220;28;19925;-75
2022/01/07 03:42:44;;;;;;;;;;;;;;;;;;5027090;28;19928;-74
2022/01/07 03:45:11;;;;;;;;;;;;;;;;;;5030545;28;19956;-75
2022/01/07 03:47:37;;;;;;;;;;;;;;;;;;5026918;28;20405;-75
2022/01/07 03:50:06;;;;;;;;;;;;;;;;;;5030869;28;20302;-74
2022/01/07 03:52:33;;;;;;;;;;;;;;;;;;5026995;28;19936;-74
2022/01/07 03:55:00;;;;;;;;;;;;;;;;;;5030961;28;19929;-76
2022/01/07 03:57:27;;;;;;;;;;;;;;;;;;5027475;28;19955;-73
2022/01/07 03:59:54;;;;;;;;;;;;;;;;;;5025416;28;19948;-73
2022/01/07 04:02:20;;;;;;;;;;;;;;;;;;5025736;28;20310;-74
2022/01/07 04:04:47;;;;;;;;;;;;;;;;;;5029876;28;20306;-74
2022/01/07 04:07:14;;;;;;;;;;;;;;;;;;5028368;28;19925;-74
2022/01/07 04:09:41;;;;;;;;;;;;;;;;;;5034251;28;20370;-74
2022/01/07 04:12:08;;;;;;;;;;;;;;;;;;5032016;28;19961;-75
2022/01/07 04:14:35;;;;;;;;;;;;;;;;;;5031739;28;19968;-74
2022/01/07 04:17:02;;;;;;;;;;;;;;;;;;5034669;28;20318;-73
2022/01/07 04:19:29;;;;;;;;;;;;;;;;;;5032663;28;19929;-73
2022/01/07 04:21:56;;;;;;;;;;;;;;;;;;5028320;28;20004;-74
2022/01/07 04:24:23;;;;;;;;;;;;;;;;;;5030657;28;19947;-73
2022/01/07 04:26:50;;;;;;;;;;;;;;;;;;5034007;28;19926;-72
2022/01/07 04:29:17;;;;;;;;;;;;;;;;;;5032098;28;19932;-74
2022/01/07 04:31:46;;;;;;;;;;;;;;;;;;5029925;28;20140;-74
2022/01/07 04:34:13;;;;;;;;;;;;;;;;;;5030233;28;19925;-74
2022/01/07 04:36:40;;;;;;;;;;;;;;;;;;5030601;28;19929;-74
2022/01/07 04:39:07;;;;;;;;;;;;;;;;;;5030783;28;19976;-74
2022/01/07 04:41:34;;;;;;;;;;;;;;;;;;5031125;28;19925;-74
2022/01/07 04:44:01;;;;;;;;;;;;;;;;;;5032732;28;19932;-75
2022/01/07 04:46:29;;;;;;;;;;;;;;;;;;5031681;28;20008;-74
2022/01/07 04:48:56;;;;;;;;;;;;;;;;;;5033843;28;20564;-75
2022/01/07 04:51:23;;;;;;;;;;;;;;;;;;5025774;28;19925;-75
2022/01/07 04:53:50;;;;;;;;;;;;;;;;;;5030596;28;19929;-73
2022/01/07 04:56:17;;;;;;;;;;;;;;;;;;5030373;28;19929;-74
2022/01/07 04:58:44;;;;;;;;;;;;;;;;;;5031682;28;19929;-74
2022/01/07 05:01:11;;;;;;;;;;;;;;;;;;5029983;28;19928;-73
2022/01/07 05:03:38;;;;;;;;;;;;;;;;;;5030066;28;19925;-74
2022/01/07 05:06:24;;;;;;;;;;;;;;;;;;5030340;28;19925;-74
2022/01/07 05:08:51;;;;;;;;;;;;;;;;;;5033149;28;19965;-74
2022/01/07 05:11:18;;;;;;;;;;;;;;;;;;5029949;28;19931;-74
2022/01/07 05:13:45;;;;;;;;;;;;;;;;;;5030073;28;19925;-74
2022/01/07 05:16:12;;;;;;;;;;;;;;;;;;5029970;28;20396;-74
2022/01/07 05:18:39;;;;;;;;;;;;;;;;;;5029870;28;19932;-74
2022/01/07 05:21:06;;;;;;;;;;;;;;;;;;5031421;28;19932;-74
2022/01/07 05:23:33;;;;;;;;;;;;;;;;;;5030177;28;20654;-74
2022/01/07 05:26:00;;;;;;;;;;;;;;;;;;5031498;28;19959;-74
2022/01/07 05:28:27;;;;;;;;;;;;;;;;;;5030850;28;20012;-74
2022/01/07 05:30:54;;;;;;;;;;;;;;;;;;5030658;28;19939;-74
2022/01/07 05:33:21;;;;;;;;;;;;;;;;;;5030233;28;20008;-72
2022/01/07 05:35:48;;;;;;;;;;;;;;;;;;5031202;28;19932;-73
2022/01/07 05:38:15;;;;;;;;;;;;;;;;;;5032774;28;19925;-72
2022/01/07 05:40:42;;;;;;;;;;;;;;;;;;5027658;28;20314;-73
2022/01/07 05:43:09;;;;;;;;;;;;;;;;;;5029640;28;19936;-73
2022/01/07 05:45:35;;;;;;;;;;;;;;;;;;5032202;28;19925;-73
2022/01/07 05:48:03;;;;;;;;;;;;;;;;;;5029004;28;19929;-73
2022/01/07 05:50:30;;;;;;;;;;;;;;;;;;5030795;28;20391;-73
2022/01/07 05:52:57;;;;;;;;;;;;;;;;;;5028510;28;19940;-73
2022/01/07 05:55:24;;;;;;;;;;;;;;;;;;5031460;28;19933;-73
2022/01/07 05:57:51;;;;;;;;;;;;;;;;;;5030354;28;20024;-74
2022/01/07 06:00:18;;;;;;;;;;;;;;;;;;5031012;28;19925;-74
2022/01/07 06:02:45;;;;;;;;;;;;;;;;;;5028744;28;19968;-74
2022/01/07 06:05:12;;;;;;;;;;;;;;;;;;5031040;28;19925;-75
2022/01/07 06:07:39;;;;;;;;;;;;;;;;;;5030617;28;19969;-73
2022/01/07 06:10:06;;;;;;;;;;;;;;;;;;5031666;28;20371;-73
2022/01/07 06:12:33;;;;;;;;;;;;;;;;;;5028081;28;19925;-74
2022/01/07 06:15:00;;;;;;;;;;;;;;;;;;5030518;28;19928;-74
2022/01/07 06:17:27;;;;;;;;;;;;;;;;;;5030679;28;19932;-73
2022/01/07 06:19:54;;;;;;;;;;;;;;;;;;5028692;28;19931;-73
2022/01/07 06:22:21;;;;;;;;;;;;;;;;;;5025137;28;20378;-73
2022/01/07 06:24:48;;;;;;;;;;;;;;;;;;5024620;28;19947;-73
2022/01/07 06:27:15;;;;;;;;;;;;;;;;;;5029691;28;19925;-73
2022/01/07 06:29:42;;;;;;;;;;;;;;;;;;5028474;28;19929;-74
2022/01/07 06:32:08;;;;;;;;;;;;;;;;;;5028685;28;19932;-75
2022/01/07 06:34:35;;;;;;;;;;;;;;;;;;5027612;28;20306;-70
2022/01/07 06:37:02;;;;;;;;;;;;;;;;;;5031991;28;19936;-69
2022/01/07 06:39:29;;;;;;;;;;;;;;;;;;5025878;28;19931;-69
2022/01/07 06:41:57;;;;;;;;;;;;;;;;;;5031115;28;19959;-70
2022/01/07 06:44:24;;;;;;;;;;;;;;;;;;5028510;28;19925;-70
2022/01/07 06:46:51;;;;;;;;;;;;;;;;;;5031368;28;19931;-69
2022/01/07 06:49:18;;;;;;;;;;;;;;;;;;5028640;28;20300;-69
2022/01/07 06:51:45;;;;;;;;;;;;;;;;;;5023361;28;19925;-68
2022/01/07 06:54:13;;;;;;;;;;;;;;;;;;5026503;28;19940;-69
2022/01/07 06:56:40;;;;;;;;;;;;;;;;;;5029313;28;19929;-69
2022/01/07 06:59:07;;;;;;;;;;;;;;;;;;5021453;28;19933;-69
2022/01/07 07:01:33;;;;;;;;;;;;;;;;;;5024675;28;19940;-68
2022/01/07 07:04:00;;;;;;;;;;;;;;;;;;5026354;28;19935;-70
2022/01/07 07:06:27;;;;;;;;;;;;;;;;;;5025671;28;19926;-70
2022/01/07 07:08:54;;;;;;;;;;;;;;;;;;5025803;28;19931;-69
2022/01/07 07:11:21;;;;;;;;;;;;;;;;;;5027561;28;19929;-69
2022/01/07 07:13:48;;;;;;;;;;;;;;;;;;5023933;28;19925;-70
2022/01/07 07:16:15;;;;;;;;;;;;;;;;;;5024269;28;19930;-70
2022/01/07 07:18:42;;;;;;;;;;;;;;;;;;5019260;28;19970;-70
2022/01/07 07:21:09;;;;;;;;;;;;;;;;;;5029177;28;19925;-71
2022/01/07 07:23:36;;;;;;;;;;;;;;;;;;5027195;28;19947;-69
2022/01/07 07:26:03;;;;;;;;;;;;;;;;;;5023561;28;20322;-69
2022/01/07 07:28:30;;;;;;;;;;;;;;;;;;5025688;28;20424;-69
2022/01/07 07:31:00;;;;;;;;;;;;;;;;;;5026166;28;19925;-69
2022/01/07 07:33:54;;;;;;;;;;;;;;;;;;5021019;28;19926;-69
2022/01/07 07:36:32;;;;;;;;;;;;;;;;;;5021847;28;19929;-68
2022/01/07 07:39:01;;;;;;;;;;;;;;;;;;5022845;28;20298;-69
2022/01/07 07:41:28;;;;;;;;;;;;;;;;;;5020134;28;19929;-70
2022/01/07 07:43:56;;;;;;;;;;;;;;;;;;5031465;28;19925;-68
2022/01/07 07:46:23;;;;;;;;;;;;;;;;;;5031099;28;20322;-69
2022/01/07 07:48:51;;;;;;;;;;;;;;;;;;5028672;28;20425;-68
2022/01/07 07:51:18;;;;;;;;;;;;;;;;;;5028597;28;20012;-70
2022/01/07 07:53:44;;;;;;;;;;;;;;;;;;5028530;28;19925;-69
2022/01/07 07:56:11;;;;;;;;;;;;;;;;;;5028949;28;19931;-68
2022/01/07 07:58:38;;;;;;;;;;;;;;;;;;5028630;28;19929;-69
2022/01/07 08:01:05;;;;;;;;;;;;;;;;;;5027794;28;20383;-69
2022/01/07 08:03:32;;;;;;;;;;;;;;;;;;5030255;28;19932;-69
2022/01/07 08:05:59;;;;;;;;;;;;;;;;;;5024578;28;19925;-69
2022/01/07 08:08:26;;;;;;;;;;;;;;;;;;5025615;28;19934;-71
2022/01/07 08:10:56;;;;;;;;;;;;;;;;;;5029633;28;19931;-68
2022/01/07 08:13:28;;;;;;;;;;;;;;;;;;5026688;28;19973;-70
2022/01/07 08:16:01;;;;;;;;;;;;;;;;;;5026204;28;19926;-70
2022/01/07 08:18:28;;;;;;;;;;;;;;;;;;5030408;28;20294;-69
2022/01/07 08:20:55;;;;;;;;;;;;;;;;;;5029784;28;19929;-70
2022/01/07 08:23:22;;;;;;;;;;;;;;;;;;5026071;28;19932;-70
2022/01/07 08:25:49;;;;;;;;;;;;;;;;;;5027106;28;19948;-70
2022/01/07 08:28:17;;;;;;;;;;;;;;;;;;5030978;28;19925;-70
2022/01/07 08:31:01;;;;;;;;;;;;;;;;;;5029567;28;20443;-70
2022/01/07 08:36:12;;;;;;;;;;;;;;;;;;5013920;28;19925;-69
2022/01/07 08:38:39;;;;;;;;;;;;;;;;;;5028447;28;20072;-69
2022/01/07 08:41:06;;;;;;;;;;;;;;;;;;5030151;28;19947;-68
2022/01/07 08:43:33;;;;;;;;;;;;;;;;;;5030299;28;19932;-69
2022/01/07 08:46:00;;;;;;;;;;;;;;;;;;5027536;28;19936;-69
2022/01/07 08:48:27;;;;;;;;;;;;;;;;;;5027129;28;19931;-69
2022/01/07 08:50:54;;;;;;;;;;;;;;;;;;5030981;28;19933;-69
2022/01/07 08:53:21;;;;;;;;;;;;;;;;;;5022982;28;19936;-69
2022/01/07 08:55:48;;;;;;;;;;;;;;;;;;5027343;28;20371;-69
2022/01/07 08:58:15;;;;;;;;;;;;;;;;;;5030624;28;19931;-69
2022/01/07 09:00:42;;;;;;;;;;;;;;;;;;5020333;28;19925;-69
2022/01/07 09:03:09;;;;;;;;;;;;;;;;;;5028892;28;20560;-69
2022/01/07 09:05:35;;;;;;;;;;;;;;;;;;5027530;28;19937;-68
2022/01/07 09:08:02;;;;;;;;;;;;;;;;;;5025800;28;19929;-66
2022/01/07 09:10:30;;;;;;;;;;;;;;;;;;5023856;28;19932;-67
2022/01/07 09:12:57;;;;;;;;;;;;;;;;;;5028784;28;20074;-67
2022/01/07 09:15:24;;;;;;;;;;;;;;;;;;5015913;28;20338;-66
2022/01/07 09:17:51;;;;;;;;;;;;;;;;;;5026190;28;19940;-67
2022/01/07 09:20:18;;;;;;;;;;;;;;;;;;5024081;28;19933;-67
2022/01/07 09:22:44;;;;;;;;;;;;;;;;;;5027661;28;19925;-67
2022/01/07 09:25:11;;;;;;;;;;;;;;;;;;5024917;28;19925;-68
2022/01/07 09:27:40;;;;;;;;;;;;;;;;;;5025849;28;20294;-68
2022/01/07 09:30:07;;;;;;;;;;;;;;;;;;5024695;28;19929;-67
2022/01/07 09:32:34;;;;;;;;;;;;;;;;;;5027761;28;19983;-67
2022/01/07 09:35:01;;;;;;;;;;;;;;;;;;5024154;28;19939;-66
2022/01/07 09:37:28;;;;;;;;;;;;;;;;;;5021386;28;19925;-68
2022/01/07 09:39:55;;;;;;;;;;;;;;;;;;5024448;28;19929;-67
2022/01/07 09:42:22;;;;;;;;;;;;;;;;;;5024789;28;19925;-67
2022/01/07 09:44:49;;;;;;;;;;;;;;;;;;5026881;28;19925;-67
2022/01/07 09:47:17;;;;;;;;;;;;;;;;;;5026437;28;20015;-67
2022/01/07 09:49:44;;;;;;;;;;;;;;;;;;5026392;28;19925;-67
2022/01/07 09:52:11;;;;;;;;;;;;;;;;;;5027836;28;19929;-67
2022/01/07 09:54:38;;;;;;;;;;;;;;;;;;5025490;28;19931;-67
2022/01/07 09:57:06;;;;;;;;;;;;;;;;;;5026803;28;19925;-68
2022/01/07 09:59:33;;;;;;;;;;;;;;;;;;5024863;28;19932;-68
2022/01/07 10:02:00;;;;;;;;;;;;;;;;;;5025841;28;19945;-67
2022/01/07 10:04:27;;;;;;;;;;;;;;;;;;5018279;28;19933;-67
2022/01/07 10:06:54;;;;;;;;;;;;;;;;;;5019729;28;21388;-68
2022/01/07 10:09:21;;;;;;;;;;;;;;;;;;5025230;28;20015;-67
2022/01/07 10:11:51;;;;;;;;;;;;;;;;;;5026059;28;19925;-68
2022/01/07 10:14:18;;;;;;;;;;;;;;;;;;5023702;28;20272;-67
2022/01/07 10:16:45;;;;;;;;;;;;;;;;;;5025334;28;19925;-67
2022/01/07 10:19:12;;;;;;;;;;;;;;;;;;5027373;28;20386;-66
2022/01/07 10:21:39;;;;;;;;;;;;;;;;;;5024399;28;19951;-66
2022/01/07 10:24:06;;;;;;;;;;;;;;;;;;5025886;28;19929;-67
2022/01/07 10:26:33;;;;;;;;;;;;;;;;;;5019391;28;20028;-67
2022/01/07 10:29:00;;;;;;;;;;;;;;;;;;5026543;28;19972;-67
2022/01/07 10:31:27;;;;;;;;;;;;;;;;;;5012752;28;20425;-68
2022/01/07 10:33:54;;;;;;;;;;;;;;;;;;5019525;28;19964;-68
2022/01/07 10:36:21;;;;;;;;;;;;;;;;;;5011774;28;20024;-68
2022/01/07 10:38:48;;;;;;;;;;;;;;;;;;5017231;28;20374;-68
2022/01/07 10:41:15;;;;;;;;;;;;;;;;;;5010752;28;19929;-68
2022/01/07 10:43:42;;;;;;;;;;;;;;;;;;5009780;28;20015;-67
2022/01/07 10:46:10;;;;;;;;;;;;;;;;;;5008153;28;19948;-68
2022/01/07 10:48:37;;;;;;;;;;;;;;;;;;5002751;28;19929;-66
2022/01/07 10:51:04;;;;;;;;;;;;;;;;;;5011807;28;19929;-68
2022/01/07 10:53:32;;;;;;;;;;;;;;;;;;5015680;28;19929;-68
2022/01/07 10:55:59;;;;;;;;;;;;;;;;;;5003964;28;19937;-67
2022/01/07 10:58:26;;;;;;;;;;;;;;;;;;5000953;28;20019;-68
2022/01/07 11:00:53;;;;;;;;;;;;;;;;;;5008194;28;20713;-67
2022/01/07 11:03:20;;;;;;;;;;;;;;;;;;5009151;28;20160;-66
2022/01/07 11:05:47;;;;;;;;;;;;;;;;;;5019414;28;20282;-68
2022/01/07 11:08:14;;;;;;;;;;;;;;;;;;5021813;28;19925;-68
2022/01/07 11:10:41;;;;;;;;;;;;;;;;;;5017093;28;19938;-70
2022/01/07 11:13:08;;;;;;;;;;;;;;;;;;5022598;28;19934;-70
2022/01/07 11:15:35;;;;;;;;;;;;;;;;;;5020097;28;20142;-69
2022/01/07 11:18:02;;;;;;;;;;;;;;;;;;5017394;28;20305;-69
2022/01/07 11:20:29;;;;;;;;;;;;;;;;;;5020065;28;20264;-68
2022/01/07 11:22:56;;;;;;;;;;;;;;;;;;5022030;28;19933;-69
2022/01/07 11:25:23;;;;;;;;;;;;;;;;;;5020871;28;19991;-69
2022/01/07 11:27:50;;;;;;;;;;;;;;;;;;5026677;28;19931;-69
2022/01/07 11:30:18;;;;;;;;;;;;;;;;;;5020245;28;20204;-68
2022/01/07 11:32:45;;;;;;;;;;;;;;;;;;5026999;28;19929;-69
2022/01/07 11:35:12;;;;;;;;;;;;;;;;;;5019927;28;19925;-68
2022/01/07 11:37:39;;;;;;;;;;;;;;;;;;5020917;28;19925;-70
2022/01/07 11:40:05;;;;;;;;;;;;;;;;;;5019214;28;19932;-70
2022/01/07 11:42:32;;;;;;;;;;;;;;;;;;5020640;28;19925;-69
2022/01/07 11:44:59;;;;;;;;;;;;;;;;;;5023631;28;19929;-69
2022/01/07 11:47:26;;;;;;;;;;;;;;;;;;5023961;28;19936;-70
2022/01/07 11:49:53;;;;;;;;;;;;;;;;;;5017527;28;19925;-69
2022/01/07 11:52:20;;;;;;;;;;;;;;;;;;5023069;28;19925;-69
2022/01/07 11:54:47;;;;;;;;;;;;;;;;;;5020946;28;19926;-68
2022/01/07 11:57:16;;;;;;;;;;;;;;;;;;5025886;28;19925;-67
2022/01/07 11:59:43;;;;;;;;;;;;;;;;;;5022404;28;20418;-68
2022/01/07 12:02:10;;;;;;;;;;;;;;;;;;5027020;28;20260;-68
2022/01/07 12:04:37;;;;;;;;;;;;;;;;;;5025798;28;19948;-69
2022/01/07 12:07:04;;;;;;;;;;;;;;;;;;5022311;28;19968;-68
2022/01/07 12:09:31;;;;;;;;;;;;;;;;;;5020537;28;19929;-68
2022/01/07 12:11:59;;;;;;;;;;;;;;;;;;5019737;28;19935;-68
2022/01/07 12:14:25;;;;;;;;;;;;;;;;;;5021473;28;19929;-68
2022/01/07 12:16:52;;;;;;;;;;;;;;;;;;5021652;28;19933;-68
2022/01/07 12:19:20;;;;;;;;;;;;;;;;;;5024298;28;19925;-68
2022/01/07 12:21:47;;;;;;;;;;;;;;;;;;5019016;28;20982;-68
2022/01/07 12:24:14;;;;;;;;;;;;;;;;;;5021935;28;19931;-68
2022/01/07 12:26:41;;;;;;;;;;;;;;;;;;5023403;28;20375;-68
2022/01/07 12:29:08;;;;;;;;;;;;;;;;;;5021969;28;20200;-68
2022/01/07 12:31:36;;;;;;;;;;;;;;;;;;5027702;28;19940;-68
2022/01/07 12:34:03;;;;;;;;;;;;;;;;;;5028261;28;19972;-68
2022/01/07 12:36:30;;;;;;;;;;;;;;;;;;5021251;28;19925;-68
2022/01/07 12:38:57;;;;;;;;;;;;;;;;;;5025169;28;20301;-68
2022/01/07 12:41:24;;;;;;;;;;;;;;;;;;5020950;28;19955;-69
2022/01/07 12:43:51;;;;;;;;;;;;;;;;;;5021423;28;19929;-69
2022/01/07 12:46:18;;;;;;;;;;;;;;;;;;5021283;28;20279;-69
2022/01/07 12:48:45;;;;;;;;;;;;;;;;;;5025189;28;19955;-68
2022/01/07 12:51:12;;;;;;;;;;;;;;;;;;5029925;28;19925;-68
2022/01/07 12:53:39;;;;;;;;;;;;;;;;;;5023932;28;19936;-68
2022/01/07 12:56:06;;;;;;;;;;;;;;;;;;5026154;28;19933;-69
2022/01/07 12:58:32;;;;;;;;;;;;;;;;;;5026311;28;19926;-69
2022/01/07 13:00:59;;;;;;;;;;;;;;;;;;5026694;28;19932;-68
2022/01/07 13:03:26;;;;;;;;;;;;;;;;;;5040754;22;19925;-70
2022/01/07 13:05:53;;;;;;;;;;;;;;;;;;5033373;28;19934;-69
2022/01/07 13:08:20;;;;;;;;;;;;;;;;;;5034511;28;19925;-69
2022/01/07 13:10:47;;;;;;;;;;;;;;;;;;5038243;28;19956;-69
2022/01/07 13:13:14;;;;;;;;;;;;;;;;;;5033504;28;19929;-68
2022/01/07 13:15:41;;;;;;;;;;;;;;;;;;5017542;28;20310;-68
2022/01/07 13:18:08;;;;;;;;;;;;;;;;;;5012662;28;19925;-68
2022/01/07 13:20:35;;;;;;;;;;;;;;;;;;5008501;28;19959;-69
2022/01/07 13:23:02;;;;;;;;;;;;;;;;;;5016488;28;19932;-69
2022/01/07 13:25:29;;;;;;;;;;;;;;;;;;5013609;28;19929;-69
2022/01/07 13:27:55;;;;;;;;;;;;;;;;;;5004103;28;19932;-70
2022/01/07 13:30:22;;;;;;;;;;;;;;;;;;5010596;28;19925;-68
2022/01/07 13:32:49;;;;;;;;;;;;;;;;;;5012787;28;19925;-69
2022/01/07 13:35:16;;;;;;;;;;;;;;;;;;5011918;28;19940;-69
2022/01/07 13:37:43;;;;;;;;;;;;;;;;;;5010365;28;19925;-69
2022/01/07 13:40:10;;;;;;;;;;;;;;;;;;5007035;28;19932;-69
2022/01/07 13:42:38;;;;;;;;;;;;;;;;;;5005655;28;19933;-70
2022/01/07 13:45:06;;;;;;;;;;;;;;;;;;5013884;28;20395;-69
2022/01/07 13:47:33;;;;;;;;;;;;;;;;;;5009646;28;19926;-69
2022/01/07 13:50:03;;;;;;;;;;;;;;;;;;5007925;28;19936;-69
2022/01/07 13:52:33;;;;;;;;;;;;;;;;;;5011686;28;20437;-69
2022/01/07 13:55:00;;;;;;;;;;;;;;;;;;5010496;28;19929;-69
2022/01/07 13:57:27;;;;;;;;;;;;;;;;;;5003055;28;20387;-69
2022/01/07 13:59:54;;;;;;;;;;;;;;;;;;5012722;28;19934;-68
2022/01/07 14:02:21;;;;;;;;;;;;;;;;;;5008588;28;20370;-68
2022/01/07 14:04:48;;;;;;;;;;;;;;;;;;4999529;28;19926;-70
2022/01/07 14:07:15;;;;;;;;;;;;;;;;;;5006814;28;19930;-67
2022/01/07 14:09:41;;;;;;;;;;;;;;;;;;5002170;28;20203;-69
2022/01/07 14:12:08;;;;;;;;;;;;;;;;;;4995016;28;19926;-69
2022/01/07 14:14:35;;;;;;;;;;;;;;;;;;4997139;28;19937;-69
2022/01/07 14:17:02;;;;;;;;;;;;;;;;;;5013407;28;19925;-69
2022/01/07 14:19:29;;;;;;;;;;;;;;;;;;5003497;28;19932;-69
2022/01/07 14:21:56;;;;;;;;;;;;;;;;;;5007624;28;19926;-69
2022/01/07 14:24:23;;;;;;;;;;;;;;;;;;4998944;28;19925;-69
2022/01/07 14:26:50;;;;;;;;;;;;;;;;;;5008290;28;19932;-68
2022/01/07 14:29:17;;;;;;;;;;;;;;;;;;4997633;28;20432;-68
2022/01/07 14:31:44;;;;;;;;;;;;;;;;;;4999390;28;20007;-68
2022/01/07 14:34:11;;;;;;;;;;;;;;;;;;5004324;28;19929;-69
2022/01/07 14:36:38;;;;;;;;;;;;;;;;;;4999137;28;20062;-68
2022/01/07 14:39:05;;;;;;;;;;;;;;;;;;5013611;28;19934;-68
2022/01/07 14:41:32;;;;;;;;;;;;;;;;;;5009087;28;19925;-68
2022/01/07 14:43:59;;;;;;;;;;;;;;;;;;4998814;28;19933;-68
2022/01/07 14:46:26;;;;;;;;;;;;;;;;;;5006494;28;19925;-69
2022/01/07 14:48:54;;;;;;;;;;;;;;;;;;4999060;28;19926;-68
2022/01/07 14:51:20;;;;;;;;;;;;;;;;;;5000425;28;19979;-68
2022/01/07 14:53:48;;;;;;;;;;;;;;;;;;5001862;28;20433;-69
2022/01/07 14:56:15;;;;;;;;;;;;;;;;;;5001217;28;19987;-68
2022/01/07 14:58:44;;;;;;;;;;;;;;;;;;5015057;28;19925;-69
2022/01/07 15:01:11;;;;;;;;;;;;;;;;;;5002138;28;19930;-68
2022/01/07 15:03:38;;;;;;;;;;;;;;;;;;5010137;28;19975;-68
2022/01/07 15:06:05;;;;;;;;;;;;;;;;;;5006691;28;20279;-68
2022/01/07 15:08:32;;;;;;;;;;;;;;;;;;5012044;28;19940;-68
2022/01/07 15:10:59;;;;;;;;;;;;;;;;;;5007747;28;20357;-68
2022/01/07 15:13:26;;;;;;;;;;;;;;;;;;5005113;28;20345;-68
2022/01/07 15:18:38;;;;;;;;;;;;;;;;;;5006687;28;20323;-67
2022/01/07 15:21:05;;;;;;;;;;;;;;;;;;5006409;28;19929;-70
2022/01/07 15:23:32;;;;;;;;;;;;;;;;;;5008110;28;19926;-70
2022/01/07 15:26:00;;;;;;;;;;;;;;;;;;5007354;28;20024;-68
2022/01/07 15:28:27;;;;;;;;;;;;;;;;;;5008770;28;19991;-69
2022/01/07 15:30:54;;;;;;;;;;;;;;;;;;5000143;28;20320;-70
2022/01/07 15:33:22;;;;;;;;;;;;;;;;;;5007335;28;19933;-70
2022/01/07 15:35:49;;;;;;;;;;;;;;;;;;5005739;28;19989;-70
2022/01/07 15:38:16;;;;;;;;;;;;;;;;;;5008882;28;19949;-70
2022/01/07 15:40:43;;;;;;;;;;;;;;;;;;5004500;28;20318;-69
2022/01/07 15:43:10;;;;;;;;;;;;;;;;;;5007647;28;19930;-68
2022/01/07 15:45:37;;;;;;;;;;;;;;;;;;5012069;28;19934;-68
2022/01/07 15:48:04;;;;;;;;;;;;;;;;;;4998641;28;19929;-69
2022/01/07 15:50:31;;;;;;;;;;;;;;;;;;5008788;28;19926;-69
2022/01/07 15:52:57;;;;;;;;;;;;;;;;;;5004471;28;20346;-68
2022/01/07 15:55:24;;;;;;;;;;;;;;;;;;5007712;28;19925;-69
2022/01/07 15:57:51;;;;;;;;;;;;;;;;;;4996573;28;19940;-68
2022/01/07 16:00:18;;;;;;;;;;;;;;;;;;5007431;28;19936;-68
2022/01/07 16:02:45;;;;;;;;;;;;;;;;;;4999604;28;19934;-68
2022/01/07 16:05:12;;;;;;;;;;;;;;;;;;5010700;28;19933;-67
2022/01/07 16:07:39;;;;;;;;;;;;;;;;;;5008318;28;20284;-68
2022/01/07 16:10:06;;;;;;;;;;;;;;;;;;5008401;28;19945;-68
2022/01/07 16:12:33;;;;;;;;;;;;;;;;;;5015721;28;19929;-67
2022/01/07 16:15:00;;;;;;;;;;;;;;;;;;5010675;28;20044;-68
2022/01/07 16:17:27;;;;;;;;;;;;;;;;;;5004155;28;19926;-68
2022/01/07 16:19:54;;;;;;;;;;;;;;;;;;5011413;28;19925;-69
2022/01/07 16:22:21;;;;;;;;;;;;;;;;;;5016164;28;19937;-68
2022/01/07 16:24:48;;;;;;;;;;;;;;;;;;5011026;28;20383;-67
2022/01/07 16:27:16;;;;;;;;;;;;;;;;;;5012129;28;19980;-68
2022/01/07 16:29:43;;;;;;;;;;;;;;;;;;5004874;28;19933;-68
2022/01/07 16:32:10;;;;;;;;;;;;;;;;;;5005788;28;19971;-68
2022/01/07 16:34:37;;;;;;;;;;;;;;;;;;5011067;28;20016;-69
2022/01/07 16:37:04;;;;;;;;;;;;;;;;;;5011302;28;19949;-69
2022/01/07 16:39:31;;;;;;;;;;;;;;;;;;5008023;28;19930;-69
2022/01/07 16:41:58;;;;;;;;;;;;;;;;;;5005266;28;19947;-69
2022/01/07 16:44:25;;;;;;;;;;;;;;;;;;5011504;28;20015;-70
2022/01/07 16:46:52;;;;;;;;;;;;;;;;;;5008649;28;20379;-68
2022/01/07 16:49:19;;;;;;;;;;;;;;;;;;5006268;28;20325;-68
2022/01/07 16:51:46;;;;;;;;;;;;;;;;;;5009138;28;20322;-68